logo
Search for airport 
image banner adimage banner adimage banner ad
image banner ad

EHS027 - Breukelen

Located in , Netherlands

ICAO - , IATA -

Data provided by Airmate  

General information

Coordinates: N52°10'32" E5°0'38"
Elevation is feet MSL.
 
View others Airports in Noord-Holland

Operational data

Special qualification required
Current time UTC:
Current local time:
Weather at : EHAM - Amsterdam/Schiphol ( 22 km )
METAR: EHAM 241955Z 33008KT 290V360 3500 SHRA FEW005 SCT028 FEW035CB 15/14 Q1018 NOSIG
TAF: TAF EHAM 241715Z 2418/2524 32008KT 9999 FEW008 SCT035 TEMPO 2418/2501 6000 -DZRA PROB30 TEMPO 2418/2501 4500 RA SHRA SCT008 FEW030CB BKN035 BECMG 2422/2501 36006KT 6000 RA SCT008 BKN012 PROB40 TEMPO 2501/2504 4000 RA SHRA BKN008 FEW025CB BECMG 2504/2506 RADZ BKN008 BECMG 2509/2512 20010KT 9999 NSW SCT020 PROB40 TEMPO 2511/2515 6000 SHRA FEW008 BKN012 FEW018CB BECMG 2519/2522 16006KT CAVOK
View NOTAMs / SUP AIP / TFR affecting this airport [VIEW]
Communications frequencies: [VIEW]

Runways:

Airport contact information

Address: Netherlands

Satellite view of EHS027